sensor_id;sensor_type;location;lat;lon;timestamp;P1;durP1;ratioP1;P2;durP2;ratioP2
2618;SDS011;1319;52.346;13.096;2022-08-30T00:00:56;3.40;;;3.10;;
2618;SDS011;1319;52.346;13.096;2022-08-30T00:03:28;3.67;;;3.33;;
2618;SDS011;1319;52.346;13.096;2022-08-30T00:05:54;3.37;;;3.07;;
2618;SDS011;1319;52.346;13.096;2022-08-30T00:08:19;4.03;;;3.43;;
2618;SDS011;1319;52.346;13.096;2022-08-30T00:10:45;3.60;;;2.93;;
2618;SDS011;1319;52.346;13.096;2022-08-30T00:13:11;3.30;;;3.00;;
2618;SDS011;1319;52.346;13.096;2022-08-30T00:15:37;21.50;;;5.70;;
2618;SDS011;1319;52.346;13.096;2022-08-30T00:18:02;6.73;;;3.77;;
2618;SDS011;1319;52.346;13.096;2022-08-30T00:20:28;4.60;;;3.50;;
2618;SDS011;1319;52.346;13.096;2022-08-30T00:22:54;5.60;;;3.57;;
2618;SDS011;1319;52.346;13.096;2022-08-30T00:25:19;8.70;;;3.73;;
2618;SDS011;1319;52.346;13.096;2022-08-30T00:27:45;5.00;;;3.47;;
2618;SDS011;1319;52.346;13.096;2022-08-30T00:30:10;6.33;;;3.47;;
2618;SDS011;1319;52.346;13.096;2022-08-30T00:32:36;4.23;;;3.77;;
2618;SDS011;1319;52.346;13.096;2022-08-30T00:35:01;4.53;;;3.20;;
2618;SDS011;1319;52.346;13.096;2022-08-30T00:37:27;3.43;;;2.30;;
2618;SDS011;1319;52.346;13.096;2022-08-30T00:39:52;3.23;;;2.00;;
2618;SDS011;1319;52.346;13.096;2022-08-30T00:42:18;4.03;;;2.60;;
2618;SDS011;1319;52.346;13.096;2022-08-30T00:44:44;2.40;;;2.30;;
2618;SDS011;1319;52.346;13.096;2022-08-30T00:47:09;4.93;;;2.60;;
2618;SDS011;1319;52.346;13.096;2022-08-30T00:49:35;2.70;;;2.50;;
2618;SDS011;1319;52.346;13.096;2022-08-30T00:52:02;3.10;;;2.90;;
2618;SDS011;1319;52.346;13.096;2022-08-30T00:54:28;4.03;;;3.00;;
2618;SDS011;1319;52.346;13.096;2022-08-30T00:56:53;6.30;;;2.90;;
2618;SDS011;1319;52.346;13.096;2022-08-30T00:59:19;2.80;;;2.60;;
2618;SDS011;1319;52.346;13.096;2022-08-30T01:01:45;3.10;;;2.90;;
2618;SDS011;1319;52.346;13.096;2022-08-30T01:04:11;3.50;;;2.70;;
2618;SDS011;1319;52.346;13.096;2022-08-30T01:06:38;3.90;;;2.80;;
2618;SDS011;1319;52.346;13.096;2022-08-30T01:09:04;2.87;;;2.67;;
2618;SDS011;1319;52.346;13.096;2022-08-30T01:11:30;2.70;;;2.50;;
2618;SDS011;1319;52.346;13.096;2022-08-30T01:13:55;4.33;;;2.70;;
2618;SDS011;1319;52.346;13.096;2022-08-30T01:16:22;2.57;;;2.47;;
2618;SDS011;1319;52.346;13.096;2022-08-30T01:18:49;3.00;;;2.77;;
2618;SDS011;1319;52.346;13.096;2022-08-30T01:21:20;5.57;;;2.90;;
2618;SDS011;1319;52.346;13.096;2022-08-30T01:23:47;5.53;;;2.77;;
2618;SDS011;1319;52.346;13.096;2022-08-30T01:26:14;5.10;;;2.70;;
2618;SDS011;1319;52.346;13.096;2022-08-30T01:28:41;2.93;;;2.73;;
2618;SDS011;1319;52.346;13.096;2022-08-30T01:31:09;5.27;;;2.80;;
2618;SDS011;1319;52.346;13.096;2022-08-30T01:33:35;4.10;;;2.73;;
2618;SDS011;1319;52.346;13.096;2022-08-30T01:36:03;3.00;;;2.67;;
2618;SDS011;1319;52.346;13.096;2022-08-30T01:38:34;3.33;;;3.00;;
2618;SDS011;1319;52.346;13.096;2022-08-30T01:41:04;3.00;;;2.80;;
2618;SDS011;1319;52.346;13.096;2022-08-30T01:43:31;2.90;;;2.60;;
2618;SDS011;1319;52.346;13.096;2022-08-30T01:45:56;3.53;;;2.33;;
2618;SDS011;1319;52.346;13.096;2022-08-30T01:48:21;3.27;;;2.80;;
2618;SDS011;1319;52.346;13.096;2022-08-30T01:50:47;5.50;;;2.90;;
2618;SDS011;1319;52.346;13.096;2022-08-30T01:53:12;2.87;;;2.67;;
2618;SDS011;1319;52.346;13.096;2022-08-30T01:55:37;8.33;;;3.33;;
2618;SDS011;1319;52.346;13.096;2022-08-30T01:58:03;4.30;;;2.53;;
2618;SDS011;1319;52.346;13.096;2022-08-30T02:00:28;4.83;;;2.83;;
2618;SDS011;1319;52.346;13.096;2022-08-30T02:02:54;4.50;;;2.80;;
2618;SDS011;1319;52.346;13.096;2022-08-30T02:05:22;6.07;;;3.30;;
2618;SDS011;1319;52.346;13.096;2022-08-30T02:07:47;3.30;;;2.93;;
2618;SDS011;1319;52.346;13.096;2022-08-30T02:10:12;3.20;;;3.00;;
2618;SDS011;1319;52.346;13.096;2022-08-30T02:12:38;3.33;;;2.60;;
2618;SDS011;1319;52.346;13.096;2022-08-30T02:15:04;3.00;;;2.70;;
2618;SDS011;1319;52.346;13.096;2022-08-30T02:17:30;5.00;;;2.40;;
2618;SDS011;1319;52.346;13.096;2022-08-30T02:19:57;2.27;;;2.17;;
2618;SDS011;1319;52.346;13.096;2022-08-30T02:22:22;2.67;;;2.50;;
2618;SDS011;1319;52.346;13.096;2022-08-30T02:24:47;3.70;;;2.40;;
2618;SDS011;1319;52.346;13.096;2022-08-30T02:27:13;4.33;;;2.30;;
2618;SDS011;1319;52.346;13.096;2022-08-30T02:29:38;3.20;;;3.00;;
2618;SDS011;1319;52.346;13.096;2022-08-30T02:32:03;3.23;;;2.80;;
2618;SDS011;1319;52.346;13.096;2022-08-30T02:34:29;7.03;;;2.83;;
2618;SDS011;1319;52.346;13.096;2022-08-30T02:36:54;5.67;;;3.17;;
2618;SDS011;1319;52.346;13.096;2022-08-30T02:39:19;3.00;;;2.70;;
2618;SDS011;1319;52.346;13.096;2022-08-30T02:41:44;7.03;;;2.83;;
2618;SDS011;1319;52.346;13.096;2022-08-30T02:44:10;3.40;;;2.97;;
2618;SDS011;1319;52.346;13.096;2022-08-30T02:46:35;3.10;;;2.70;;
2618;SDS011;1319;52.346;13.096;2022-08-30T02:49:00;3.93;;;3.00;;
2618;SDS011;1319;52.346;13.096;2022-08-30T02:51:26;3.20;;;2.87;;
2618;SDS011;1319;52.346;13.096;2022-08-30T02:53:51;2.87;;;2.67;;
2618;SDS011;1319;52.346;13.096;2022-08-30T02:56:16;3.53;;;2.80;;
2618;SDS011;1319;52.346;13.096;2022-08-30T02:58:42;3.77;;;2.70;;
2618;SDS011;1319;52.346;13.096;2022-08-30T03:01:08;2.10;;;2.00;;
2618;SDS011;1319;52.346;13.096;2022-08-30T03:03:34;2.00;;;1.90;;
2618;SDS011;1319;52.346;13.096;2022-08-30T03:05:59;2.10;;;2.00;;
2618;SDS011;1319;52.346;13.096;2022-08-30T03:08:24;2.17;;;2.07;;
2618;SDS011;1319;52.346;13.096;2022-08-30T03:10:50;2.20;;;2.10;;
2618;SDS011;1319;52.346;13.096;2022-08-30T03:13:16;8.80;;;2.70;;
2618;SDS011;1319;52.346;13.096;2022-08-30T03:15:41;2.90;;;2.60;;
2618;SDS011;1319;52.346;13.096;2022-08-30T03:18:07;2.70;;;2.50;;
2618;SDS011;1319;52.346;13.096;2022-08-30T03:20:32;2.37;;;2.27;;
2618;SDS011;1319;52.346;13.096;2022-08-30T03:22:59;3.93;;;2.50;;
2618;SDS011;1319;52.346;13.096;2022-08-30T03:25:24;2.70;;;2.50;;
2618;SDS011;1319;52.346;13.096;2022-08-30T03:27:49;2.87;;;2.50;;
2618;SDS011;1319;52.346;13.096;2022-08-30T03:30:15;3.27;;;2.93;;
2618;SDS011;1319;52.346;13.096;2022-08-30T03:32:40;2.73;;;2.60;;
2618;SDS011;1319;52.346;13.096;2022-08-30T03:35:06;3.33;;;2.33;;
2618;SDS011;1319;52.346;13.096;2022-08-30T03:37:31;4.23;;;2.20;;
2618;SDS011;1319;52.346;13.096;2022-08-30T03:39:57;2.20;;;2.10;;
2618;SDS011;1319;52.346;13.096;2022-08-30T03:42:22;4.30;;;2.00;;
2618;SDS011;1319;52.346;13.096;2022-08-30T03:44:48;2.20;;;2.10;;
2618;SDS011;1319;52.346;13.096;2022-08-30T03:47:13;6.50;;;3.70;;
2618;SDS011;1319;52.346;13.096;2022-08-30T03:49:38;21.83;;;4.37;;
2618;SDS011;1319;52.346;13.096;2022-08-30T03:52:04;30.57;;;4.40;;
2618;SDS011;1319;52.346;13.096;2022-08-30T03:54:29;27.73;;;4.70;;
2618;SDS011;1319;52.346;13.096;2022-08-30T03:56:54;31.33;;;4.40;;
2618;SDS011;1319;52.346;13.096;2022-08-30T03:59:20;15.80;;;4.80;;
2618;SDS011;1319;52.346;13.096;2022-08-30T04:01:45;6.37;;;3.97;;
2618;SDS011;1319;52.346;13.096;2022-08-30T04:04:11;16.07;;;4.77;;
2618;SDS011;1319;52.346;13.096;2022-08-30T04:06:37;11.07;;;4.60;;
2618;SDS011;1319;52.346;13.096;2022-08-30T04:09:02;16.57;;;5.07;;
2618;SDS011;1319;52.346;13.096;2022-08-30T04:11:27;10.80;;;4.70;;
2618;SDS011;1319;52.346;13.096;2022-08-30T04:13:53;10.87;;;5.20;;
2618;SDS011;1319;52.346;13.096;2022-08-30T04:16:20;9.37;;;5.60;;
2618;SDS011;1319;52.346;13.096;2022-08-30T04:18:45;8.50;;;5.00;;
2618;SDS011;1319;52.346;13.096;2022-08-30T04:21:11;11.13;;;4.97;;
2618;SDS011;1319;52.346;13.096;2022-08-30T04:23:36;9.53;;;4.80;;
2618;SDS011;1319;52.346;13.096;2022-08-30T04:26:01;13.73;;;4.80;;
2618;SDS011;1319;52.346;13.096;2022-08-30T04:28:27;11.00;;;4.43;;
2618;SDS011;1319;52.346;13.096;2022-08-30T04:30:52;6.77;;;4.10;;
2618;SDS011;1319;52.346;13.096;2022-08-30T04:33:17;5.53;;;4.07;;
2618;SDS011;1319;52.346;13.096;2022-08-30T04:35:43;8.93;;;3.83;;
2618;SDS011;1319;52.346;13.096;2022-08-30T04:38:10;9.37;;;4.20;;
2618;SDS011;1319;52.346;13.096;2022-08-30T04:40:35;7.73;;;4.40;;
2618;SDS011;1319;52.346;13.096;2022-08-30T04:43:00;8.80;;;4.40;;
2618;SDS011;1319;52.346;13.096;2022-08-30T04:45:25;10.23;;;4.90;;
2618;SDS011;1319;52.346;13.096;2022-08-30T04:47:51;5.97;;;4.50;;
2618;SDS011;1319;52.346;13.096;2022-08-30T04:50:17;8.73;;;4.50;;
2618;SDS011;1319;52.346;13.096;2022-08-30T04:52:42;6.50;;;4.60;;
2618;SDS011;1319;52.346;13.096;2022-08-30T04:55:08;8.33;;;4.37;;
2618;SDS011;1319;52.346;13.096;2022-08-30T04:57:34;11.97;;;4.57;;
2618;SDS011;1319;52.346;13.096;2022-08-30T05:00:00;7.40;;;4.30;;
2618;SDS011;1319;52.346;13.096;2022-08-30T05:02:25;11.63;;;5.53;;
2618;SDS011;1319;52.346;13.096;2022-08-30T05:04:50;7.77;;;5.03;;
2618;SDS011;1319;52.346;13.096;2022-08-30T05:07:35;9.53;;;5.10;;
2618;SDS011;1319;52.346;13.096;2022-08-30T05:10:02;7.80;;;4.60;;
2618;SDS011;1319;52.346;13.096;2022-08-30T05:12:27;6.87;;;4.60;;
2618;SDS011;1319;52.346;13.096;2022-08-30T05:14:53;12.47;;;5.13;;
2618;SDS011;1319;52.346;13.096;2022-08-30T05:17:18;5.47;;;4.40;;
2618;SDS011;1319;52.346;13.096;2022-08-30T05:19:43;6.77;;;4.27;;
2618;SDS011;1319;52.346;13.096;2022-08-30T05:22:09;10.27;;;5.17;;
2618;SDS011;1319;52.346;13.096;2022-08-30T05:24:34;12.50;;;5.47;;
2618;SDS011;1319;52.346;13.096;2022-08-30T05:26:59;6.47;;;5.07;;
2618;SDS011;1319;52.346;13.096;2022-08-30T05:29:24;6.67;;;4.93;;
2618;SDS011;1319;52.346;13.096;2022-08-30T05:31:50;9.70;;;5.63;;
2618;SDS011;1319;52.346;13.096;2022-08-30T05:34:15;8.37;;;5.37;;
2618;SDS011;1319;52.346;13.096;2022-08-30T05:36:40;8.73;;;5.50;;
2618;SDS011;1319;52.346;13.096;2022-08-30T05:39:06;8.20;;;6.13;;
2618;SDS011;1319;52.346;13.096;2022-08-30T05:41:31;10.73;;;6.70;;
2618;SDS011;1319;52.346;13.096;2022-08-30T05:43:58;9.27;;;6.73;;
2618;SDS011;1319;52.346;13.096;2022-08-30T05:46:23;10.13;;;6.93;;
2618;SDS011;1319;52.346;13.096;2022-08-30T05:48:49;11.00;;;7.67;;
2618;SDS011;1319;52.346;13.096;2022-08-30T05:51:16;10.40;;;7.97;;
2618;SDS011;1319;52.346;13.096;2022-08-30T05:53:42;10.27;;;7.73;;
2618;SDS011;1319;52.346;13.096;2022-08-30T05:56:08;18.67;;;10.30;;
2618;SDS011;1319;52.346;13.096;2022-08-30T05:58:34;21.53;;;12.73;;
2618;SDS011;1319;52.346;13.096;2022-08-30T06:01:31;24.63;;;13.30;;
2618;SDS011;1319;52.346;13.096;2022-08-30T06:04:01;26.80;;;13.83;;
2618;SDS011;1319;52.346;13.096;2022-08-30T06:06:42;25.20;;;14.57;;
2618;SDS011;1319;52.346;13.096;2022-08-30T06:09:51;27.77;;;15.63;;
2618;SDS011;1319;52.346;13.096;2022-08-30T06:12:49;25.07;;;14.90;;
2618;SDS011;1319;52.346;13.096;2022-08-30T06:15:22;25.27;;;14.63;;
2618;SDS011;1319;52.346;13.096;2022-08-30T06:18:00;22.60;;;14.50;;
2618;SDS011;1319;52.346;13.096;2022-08-30T06:20:48;22.30;;;14.37;;
2618;SDS011;1319;52.346;13.096;2022-08-30T06:23:18;24.90;;;14.60;;
2618;SDS011;1319;52.346;13.096;2022-08-30T06:26:26;22.10;;;13.87;;
2618;SDS011;1319;52.346;13.096;2022-08-30T06:29:21;21.63;;;14.07;;
2618;SDS011;1319;52.346;13.096;2022-08-30T06:32:01;24.00;;;14.47;;
2618;SDS011;1319;52.346;13.096;2022-08-30T06:34:54;20.23;;;13.70;;
2618;SDS011;1319;52.346;13.096;2022-08-30T06:37:24;21.90;;;14.23;;
2618;SDS011;1319;52.346;13.096;2022-08-30T06:40:15;22.30;;;13.53;;
2618;SDS011;1319;52.346;13.096;2022-08-30T06:43:23;15.80;;;12.40;;
2618;SDS011;1319;52.346;13.096;2022-08-30T06:46:13;18.07;;;12.27;;
2618;SDS011;1319;52.346;13.096;2022-08-30T06:48:55;15.20;;;10.63;;
2618;SDS011;1319;52.346;13.096;2022-08-30T06:51:32;16.33;;;11.27;;
2618;SDS011;1319;52.346;13.096;2022-08-30T06:53:59;13.93;;;10.87;;
2618;SDS011;1319;52.346;13.096;2022-08-30T06:56:31;13.37;;;10.03;;
2618;SDS011;1319;52.346;13.096;2022-08-30T06:59:19;14.20;;;10.57;;
2618;SDS011;1319;52.346;13.096;2022-08-30T07:02:10;14.67;;;9.97;;
2618;SDS011;1319;52.346;13.096;2022-08-30T07:04:41;13.53;;;10.50;;
2618;SDS011;1319;52.346;13.096;2022-08-30T07:07:15;11.00;;;9.13;;
2618;SDS011;1319;52.346;13.096;2022-08-30T07:09:43;16.47;;;10.90;;
2618;SDS011;1319;52.346;13.096;2022-08-30T07:12:15;14.03;;;10.93;;
2618;SDS011;1319;52.346;13.096;2022-08-30T07:14:44;16.07;;;12.37;;
2618;SDS011;1319;52.346;13.096;2022-08-30T07:17:10;15.77;;;11.50;;
2618;SDS011;1319;52.346;13.096;2022-08-30T07:19:56;14.00;;;11.20;;
2618;SDS011;1319;52.346;13.096;2022-08-30T07:22:26;11.53;;;9.80;;
2618;SDS011;1319;52.346;13.096;2022-08-30T07:25:05;12.20;;;10.10;;
2618;SDS011;1319;52.346;13.096;2022-08-30T07:27:35;17.60;;;11.33;;
2618;SDS011;1319;52.346;13.096;2022-08-30T07:30:11;12.27;;;9.83;;
2618;SDS011;1319;52.346;13.096;2022-08-30T07:32:47;11.17;;;9.50;;
2618;SDS011;1319;52.346;13.096;2022-08-30T07:35:29;10.33;;;8.77;;
2618;SDS011;1319;52.346;13.096;2022-08-30T07:38:17;11.93;;;10.33;;
2618;SDS011;1319;52.346;13.096;2022-08-30T07:41:05;9.73;;;8.60;;
2618;SDS011;1319;52.346;13.096;2022-08-30T07:44:12;10.57;;;8.03;;
2618;SDS011;1319;52.346;13.096;2022-08-30T07:50:34;7.20;;;6.30;;
2618;SDS011;1319;52.346;13.096;2022-08-30T07:56:39;6.67;;;6.00;;
2618;SDS011;1319;52.346;13.096;2022-08-30T07:59:35;6.17;;;5.40;;
2618;SDS011;1319;52.346;13.096;2022-08-30T08:04:51;6.43;;;5.70;;
2618;SDS011;1319;52.346;13.096;2022-08-30T08:07:34;5.90;;;5.13;;
2618;SDS011;1319;52.346;13.096;2022-08-30T08:10:29;5.20;;;4.70;;
2618;SDS011;1319;52.346;13.096;2022-08-30T08:13:14;4.87;;;4.47;;
2618;SDS011;1319;52.346;13.096;2022-08-30T08:16:02;4.73;;;4.30;;
2618;SDS011;1319;52.346;13.096;2022-08-30T08:18:27;5.03;;;4.20;;
2618;SDS011;1319;52.346;13.096;2022-08-30T08:20:52;3.93;;;3.63;;
2618;SDS011;1319;52.346;13.096;2022-08-30T08:23:18;3.90;;;3.60;;
2618;SDS011;1319;52.346;13.096;2022-08-30T08:25:43;6.60;;;3.80;;
2618;SDS011;1319;52.346;13.096;2022-08-30T08:28:08;3.20;;;2.90;;
2618;SDS011;1319;52.346;13.096;2022-08-30T08:30:34;3.67;;;2.83;;
2618;SDS011;1319;52.346;13.096;2022-08-30T08:33:00;3.23;;;2.90;;
2618;SDS011;1319;52.346;13.096;2022-08-30T08:35:25;3.33;;;3.13;;
2618;SDS011;1319;52.346;13.096;2022-08-30T08:37:51;4.20;;;3.20;;
2618;SDS011;1319;52.346;13.096;2022-08-30T08:40:16;2.90;;;2.70;;
2618;SDS011;1319;52.346;13.096;2022-08-30T08:43:04;4.57;;;2.70;;
2618;SDS011;1319;52.346;13.096;2022-08-30T08:48:18;3.73;;;2.47;;
2618;SDS011;1319;52.346;13.096;2022-08-30T08:50:47;3.10;;;2.80;;
2618;SDS011;1319;52.346;13.096;2022-08-30T08:53:32;2.63;;;2.40;;
2618;SDS011;1319;52.346;13.096;2022-08-30T08:56:10;2.80;;;2.60;;
2618;SDS011;1319;52.346;13.096;2022-08-30T08:58:43;2.33;;;2.23;;
2618;SDS011;1319;52.346;13.096;2022-08-30T09:01:09;2.45;;;2.30;;
2618;SDS011;1319;52.346;13.096;2022-08-30T09:03:35;3.55;;;2.20;;
2618;SDS011;1319;52.346;13.096;2022-08-30T09:06:01;2.33;;;2.10;;
2618;SDS011;1319;52.346;13.096;2022-08-30T09:08:27;2.15;;;2.05;;
2618;SDS011;1319;52.346;13.096;2022-08-30T09:10:58;2.35;;;2.25;;
2618;SDS011;1319;52.346;13.096;2022-08-30T09:13:25;2.53;;;2.42;;
2618;SDS011;1319;52.346;13.096;2022-08-30T09:15:51;2.58;;;2.38;;
2618;SDS011;1319;52.346;13.096;2022-08-30T09:18:17;2.97;;;2.45;;
2618;SDS011;1319;52.346;13.096;2022-08-30T09:20:44;2.58;;;2.40;;
2618;SDS011;1319;52.346;13.096;2022-08-30T09:23:21;2.42;;;2.22;;
2618;SDS011;1319;52.346;13.096;2022-08-30T09:26:02;2.33;;;2.15;;
2618;SDS011;1319;52.346;13.096;2022-08-30T09:28:30;2.50;;;2.30;;
2618;SDS011;1319;52.346;13.096;2022-08-30T09:31:19;2.37;;;2.23;;
2618;SDS011;1319;52.346;13.096;2022-08-30T09:33:54;2.60;;;2.40;;
2618;SDS011;1319;52.346;13.096;2022-08-30T09:36:23;2.70;;;2.50;;
2618;SDS011;1319;52.346;13.096;2022-08-30T09:38:57;3.35;;;2.70;;
2618;SDS011;1319;52.346;13.096;2022-08-30T09:41:33;4.85;;;3.67;;
2618;SDS011;1319;52.346;13.096;2022-08-30T09:44:06;3.95;;;3.50;;
2618;SDS011;1319;52.346;13.096;2022-08-30T09:46:32;4.47;;;3.92;;
2618;SDS011;1319;52.346;13.096;2022-08-30T09:48:57;5.60;;;5.10;;
2618;SDS011;1319;52.346;13.096;2022-08-30T09:54:14;5.63;;;4.90;;
2618;SDS011;1319;52.346;13.096;2022-08-30T09:56:53;5.20;;;4.80;;
2618;SDS011;1319;52.346;13.096;2022-08-30T10:04:47;5.55;;;4.70;;
2618;SDS011;1319;52.346;13.096;2022-08-30T10:07:15;4.95;;;4.47;;
2618;SDS011;1319;52.346;13.096;2022-08-30T10:09:57;5.05;;;4.57;;
2618;SDS011;1319;52.346;13.096;2022-08-30T10:15:13;5.47;;;4.97;;
2618;SDS011;1319;52.346;13.096;2022-08-30T10:22:40;7.40;;;4.80;;
2618;SDS011;1319;52.346;13.096;2022-08-30T10:25:15;4.90;;;4.55;;
2618;SDS011;1319;52.346;13.096;2022-08-30T10:27:44;5.05;;;4.65;;
2618;SDS011;1319;52.346;13.096;2022-08-30T10:30:10;5.30;;;4.32;;
2618;SDS011;1319;52.346;13.096;2022-08-30T10:32:40;4.70;;;4.30;;
2618;SDS011;1319;52.346;13.096;2022-08-30T10:35:09;4.60;;;4.20;;
2618;SDS011;1319;52.346;13.096;2022-08-30T10:37:39;4.32;;;4.03;;
2618;SDS011;1319;52.346;13.096;2022-08-30T10:40:10;5.00;;;4.50;;
2618;SDS011;1319;52.346;13.096;2022-08-30T10:42:55;3.85;;;3.53;;
2618;SDS011;1319;52.346;13.096;2022-08-30T10:45:21;3.70;;;3.40;;
2618;SDS011;1319;52.346;13.096;2022-08-30T10:55:27;3.92;;;3.22;;
2618;SDS011;1319;52.346;13.096;2022-08-30T11:08:24;4.93;;;2.78;;
2618;SDS011;1319;52.346;13.096;2022-08-30T11:10:56;2.50;;;2.40;;
2618;SDS011;1319;52.346;13.096;2022-08-30T11:13:26;2.72;;;2.60;;
2618;SDS011;1319;52.346;13.096;2022-08-30T11:18:28;2.55;;;2.45;;
2618;SDS011;1319;52.346;13.096;2022-08-30T11:21:14;2.10;;;2.00;;
2618;SDS011;1319;52.346;13.096;2022-08-30T11:23:40;1.73;;;1.65;;
2618;SDS011;1319;52.346;13.096;2022-08-30T11:26:07;2.28;;;2.00;;
2618;SDS011;1319;52.346;13.096;2022-08-30T11:31:07;2.63;;;2.00;;
2618;SDS011;1319;52.346;13.096;2022-08-30T11:34:06;7.07;;;2.03;;
2618;SDS011;1319;52.346;13.096;2022-08-30T11:43:55;2.00;;;1.90;;
2618;SDS011;1319;52.346;13.096;2022-08-30T11:46:36;3.88;;;1.75;;
2618;SDS011;1319;52.346;13.096;2022-08-30T11:56:35;2.20;;;2.00;;
2618;SDS011;1319;52.346;13.096;2022-08-30T11:59:09;1.85;;;1.70;;
2618;SDS011;1319;52.346;13.096;2022-08-30T12:01:41;1.95;;;1.77;;
2618;SDS011;1319;52.346;13.096;2022-08-30T12:04:12;1.70;;;1.70;;
2618;SDS011;1319;52.346;13.096;2022-08-30T12:14:34;1.90;;;1.80;;
2618;SDS011;1319;52.346;13.096;2022-08-30T12:16:59;2.13;;;2.03;;
2618;SDS011;1319;52.346;13.096;2022-08-30T12:19:44;2.10;;;2.00;;
2618;SDS011;1319;52.346;13.096;2022-08-30T12:22:13;2.33;;;2.10;;
2618;SDS011;1319;52.346;13.096;2022-08-30T12:24:40;2.05;;;1.95;;
2618;SDS011;1319;52.346;13.096;2022-08-30T12:27:27;2.50;;;2.10;;
2618;SDS011;1319;52.346;13.096;2022-08-30T12:29:54;2.10;;;2.00;;
2618;SDS011;1319;52.346;13.096;2022-08-30T12:32:19;1.90;;;1.80;;
2618;SDS011;1319;52.346;13.096;2022-08-30T12:34:50;1.58;;;1.58;;
2618;SDS011;1319;52.346;13.096;2022-08-30T12:37:25;1.75;;;1.75;;
2618;SDS011;1319;52.346;13.096;2022-08-30T12:40:07;1.80;;;1.80;;
2618;SDS011;1319;52.346;13.096;2022-08-30T12:42:34;2.58;;;2.00;;
2618;SDS011;1319;52.346;13.096;2022-08-30T12:45:01;2.20;;;2.10;;
2618;SDS011;1319;52.346;13.096;2022-08-30T12:47:48;4.38;;;2.13;;
2618;SDS011;1319;52.346;13.096;2022-08-30T12:50:14;2.38;;;2.13;;
2618;SDS011;1319;52.346;13.096;2022-08-30T12:52:41;2.22;;;2.13;;
2618;SDS011;1319;52.346;13.096;2022-08-30T13:00:10;2.65;;;2.55;;
2618;SDS011;1319;52.346;13.096;2022-08-30T13:02:51;2.33;;;2.22;;
2618;SDS011;1319;52.346;13.096;2022-08-30T13:10:58;1.83;;;1.73;;
2618;SDS011;1319;52.346;13.096;2022-08-30T13:13:25;2.13;;;2.03;;
2618;SDS011;1319;52.346;13.096;2022-08-30T13:15:50;1.80;;;1.70;;
2618;SDS011;1319;52.346;13.096;2022-08-30T13:18:17;2.33;;;2.15;;
2618;SDS011;1319;52.346;13.096;2022-08-30T13:20:43;2.10;;;2.00;;
2618;SDS011;1319;52.346;13.096;2022-08-30T13:23:09;2.50;;;2.35;;
2618;SDS011;1319;52.346;13.096;2022-08-30T13:25:35;2.33;;;2.22;;
2618;SDS011;1319;52.346;13.096;2022-08-30T13:28:02;2.63;;;2.42;;
2618;SDS011;1319;52.346;13.096;2022-08-30T13:30:27;2.30;;;2.20;;
2618;SDS011;1319;52.346;13.096;2022-08-30T13:32:53;2.30;;;2.15;;
2618;SDS011;1319;52.346;13.096;2022-08-30T13:35:18;2.47;;;2.10;;
2618;SDS011;1319;52.346;13.096;2022-08-30T13:37:43;2.33;;;2.22;;
2618;SDS011;1319;52.346;13.096;2022-08-30T13:40:09;3.33;;;2.55;;
2618;SDS011;1319;52.346;13.096;2022-08-30T13:42:35;2.17;;;2.08;;
2618;SDS011;1319;52.346;13.096;2022-08-30T13:45:00;2.20;;;2.10;;
2618;SDS011;1319;52.346;13.096;2022-08-30T13:47:25;2.30;;;2.20;;
2618;SDS011;1319;52.346;13.096;2022-08-30T13:49:50;2.40;;;2.20;;
2618;SDS011;1319;52.346;13.096;2022-08-30T13:52:18;2.20;;;2.10;;
2618;SDS011;1319;52.346;13.096;2022-08-30T13:54:47;3.05;;;2.20;;
2618;SDS011;1319;52.346;13.096;2022-08-30T13:57:12;2.10;;;2.00;;
2618;SDS011;1319;52.346;13.096;2022-08-30T13:59:37;1.80;;;1.70;;
2618;SDS011;1319;52.346;13.096;2022-08-30T14:02:03;2.40;;;2.28;;
2618;SDS011;1319;52.346;13.096;2022-08-30T14:04:28;1.70;;;1.70;;
2618;SDS011;1319;52.346;13.096;2022-08-30T14:06:53;1.35;;;1.35;;
2618;SDS011;1319;52.346;13.096;2022-08-30T14:09:19;3.50;;;1.35;;
2618;SDS011;1319;52.346;13.096;2022-08-30T14:11:44;1.20;;;1.20;;
2618;SDS011;1319;52.346;13.096;2022-08-30T14:14:09;1.50;;;1.40;;
2618;SDS011;1319;52.346;13.096;2022-08-30T14:16:36;1.30;;;1.25;;
2618;SDS011;1319;52.346;13.096;2022-08-30T14:19:02;1.33;;;1.23;;
2618;SDS011;1319;52.346;13.096;2022-08-30T14:21:27;2.75;;;1.20;;
2618;SDS011;1319;52.346;13.096;2022-08-30T14:23:53;1.10;;;1.10;;
2618;SDS011;1319;52.346;13.096;2022-08-30T14:26:20;1.35;;;1.25;;
2618;SDS011;1319;52.346;13.096;2022-08-30T14:28:46;1.13;;;1.10;;
2618;SDS011;1319;52.346;13.096;2022-08-30T14:31:11;1.40;;;1.33;;
2618;SDS011;1319;52.346;13.096;2022-08-30T14:33:37;1.17;;;1.17;;
2618;SDS011;1319;52.346;13.096;2022-08-30T14:36:02;1.45;;;1.35;;
2618;SDS011;1319;52.346;13.096;2022-08-30T14:38:27;1.98;;;1.42;;
2618;SDS011;1319;52.346;13.096;2022-08-30T14:40:53;2.90;;;1.33;;
2618;SDS011;1319;52.346;13.096;2022-08-30T14:43:18;1.42;;;1.42;;
2618;SDS011;1319;52.346;13.096;2022-08-30T14:45:43;1.30;;;1.30;;
2618;SDS011;1319;52.346;13.096;2022-08-30T14:48:08;1.35;;;1.35;;
2618;SDS011;1319;52.346;13.096;2022-08-30T14:50:34;1.92;;;1.42;;
2618;SDS011;1319;52.346;13.096;2022-08-30T14:52:59;1.58;;;1.27;;
2618;SDS011;1319;52.346;13.096;2022-08-30T14:55:25;1.80;;;1.35;;
2618;SDS011;1319;52.346;13.096;2022-08-30T14:57:52;1.40;;;1.30;;
2618;SDS011;1319;52.346;13.096;2022-08-30T15:00:17;1.77;;;1.30;;
2618;SDS011;1319;52.346;13.096;2022-08-30T15:02:43;1.20;;;1.20;;
2618;SDS011;1319;52.346;13.096;2022-08-30T15:05:08;1.40;;;1.40;;
2618;SDS011;1319;52.346;13.096;2022-08-30T15:07:34;3.13;;;1.40;;
2618;SDS011;1319;52.346;13.096;2022-08-30T15:09:59;1.75;;;1.65;;
2618;SDS011;1319;52.346;13.096;2022-08-30T15:12:24;1.70;;;1.60;;
2618;SDS011;1319;52.346;13.096;2022-08-30T15:14:49;2.08;;;1.98;;
2618;SDS011;1319;52.346;13.096;2022-08-30T15:17:15;4.55;;;2.20;;
2618;SDS011;1319;52.346;13.096;2022-08-30T15:19:43;2.25;;;2.15;;
2618;SDS011;1319;52.346;13.096;2022-08-30T15:22:08;2.90;;;1.88;;
2618;SDS011;1319;52.346;13.096;2022-08-30T15:24:34;2.72;;;1.92;;
2618;SDS011;1319;52.346;13.096;2022-08-30T15:26:59;4.32;;;2.03;;
2618;SDS011;1319;52.346;13.096;2022-08-30T15:29:25;1.92;;;1.83;;
2618;SDS011;1319;52.346;13.096;2022-08-30T15:31:50;3.28;;;2.28;;
2618;SDS011;1319;52.346;13.096;2022-08-30T15:34:17;6.82;;;1.95;;
2618;SDS011;1319;52.346;13.096;2022-08-30T15:36:43;6.53;;;2.00;;
2618;SDS011;1319;52.346;13.096;2022-08-30T15:39:08;3.65;;;1.80;;
2618;SDS011;1319;52.346;13.096;2022-08-30T15:41:34;2.13;;;1.60;;
2618;SDS011;1319;52.346;13.096;2022-08-30T15:44:00;1.60;;;1.60;;
2618;SDS011;1319;52.346;13.096;2022-08-30T15:46:33;1.73;;;1.55;;
2618;SDS011;1319;52.346;13.096;2022-08-30T15:48:59;2.45;;;1.70;;
2618;SDS011;1319;52.346;13.096;2022-08-30T15:51:25;2.05;;;1.75;;
2618;SDS011;1319;52.346;13.096;2022-08-30T15:53:50;1.73;;;1.48;;
2618;SDS011;1319;52.346;13.096;2022-08-30T15:56:16;2.53;;;1.80;;
2618;SDS011;1319;52.346;13.096;2022-08-30T15:58:41;3.50;;;1.88;;
2618;SDS011;1319;52.346;13.096;2022-08-30T16:01:07;2.58;;;1.70;;
2618;SDS011;1319;52.346;13.096;2022-08-30T16:03:33;1.83;;;1.73;;
2618;SDS011;1319;52.346;13.096;2022-08-30T16:05:58;1.67;;;1.58;;
2618;SDS011;1319;52.346;13.096;2022-08-30T16:08:24;2.05;;;1.67;;
2618;SDS011;1319;52.346;13.096;2022-08-30T16:10:49;1.80;;;1.70;;
2618;SDS011;1319;52.346;13.096;2022-08-30T16:13:14;1.77;;;1.77;;
2618;SDS011;1319;52.346;13.096;2022-08-30T16:15:39;1.60;;;1.60;;
2618;SDS011;1319;52.346;13.096;2022-08-30T16:18:05;2.17;;;1.92;;
2618;SDS011;1319;52.346;13.096;2022-08-30T16:20:30;1.88;;;1.77;;
2618;SDS011;1319;52.346;13.096;2022-08-30T16:22:55;3.97;;;1.88;;
2618;SDS011;1319;52.346;13.096;2022-08-30T16:25:20;2.15;;;1.98;;
2618;SDS011;1319;52.346;13.096;2022-08-30T16:27:45;3.90;;;2.10;;
2618;SDS011;1319;52.346;13.096;2022-08-30T16:30:11;2.65;;;2.25;;
2618;SDS011;1319;52.346;13.096;2022-08-30T16:32:37;3.55;;;2.00;;
2618;SDS011;1319;52.346;13.096;2022-08-30T16:35:02;2.03;;;1.92;;